Time;durP1;ratioP1;P1;durP2;ratioP2;P2;SDS_P1;SDS_P2;PMS_P1;PMS_P2;Temp;Humidity;BMP_temperature;BMP_pressure;BME280_temperature;BME280_humidity;BME280_pressure;Samples;Min_cycle;Max_cycle;Signal;HPM_P1;HPM_P2
2022/04/26 03:36:35;;;;;;;8.15;7.45;;;;;;;;;;5071051;28;20025;-59
2022/04/26 03:39:00;;;;;;;6.47;5.97;;;;;;;;;;5074350;28;20050;-59
2022/04/26 03:41:26;;;;;;;8.93;8.23;;;;;;;;;;5073120;28;20033;-60
2022/04/26 03:43:51;;;;;;;7.05;6.47;;;;;;;;;;5073797;28;20044;-60
2022/04/26 03:46:16;;;;;;;8.73;8.02;;;;;;;;;;5073258;28;20037;-59
2022/04/26 03:48:41;;;;;;;9.48;8.88;;;;;;;;;;5073480;28;20039;-60
2022/04/26 03:51:07;;;;;;;11.27;10.35;;;;;;;;;;5072174;28;20112;-60
2022/04/26 03:53:33;;;;;;;9.65;8.95;;;;;;;;;;5073434;28;20480;-59
2022/04/26 03:55:58;;;;;;;14.95;9.40;;;;;;;;;;5073957;28;20048;-60
2022/04/26 03:58:25;;;;;;;10.95;10.20;;;;;;;;;;5072000;28;20074;-60
2022/04/26 04:00:50;;;;;;;12.55;11.45;;;;;;;;;;5073381;28;20055;-60
2022/04/26 04:03:16;;;;;;;11.48;10.65;;;;;;;;;;5073004;28;20512;-60
2022/04/26 04:05:42;;;;;;;11.10;10.30;;;;;;;;;;5076662;28;20032;-60
2022/04/26 04:08:07;;;;;;;8.77;8.18;;;;;;;;;;5070175;28;20063;-60
2022/04/26 04:10:33;;;;;;;10.35;9.65;;;;;;;;;;5075657;28;20051;-60
2022/04/26 04:12:58;;;;;;;8.80;8.20;;;;;;;;;;5073336;28;20032;-60
2022/04/26 04:15:24;;;;;;;10.23;9.52;;;;;;;;;;5072443;28;20021;-60
2022/04/26 04:17:49;;;;;;;9.90;9.20;;;;;;;;;;5075184;28;20107;-60
2022/04/26 04:20:15;;;;;;;9.23;8.57;;;;;;;;;;5071980;28;20044;-60
2022/04/26 04:22:41;;;;;;;10.65;9.93;;;;;;;;;;5075775;28;20107;-58
2022/04/26 04:25:07;;;;;;;10.70;9.95;;;;;;;;;;5071919;28;20143;-59
2022/04/26 04:27:32;;;;;;;10.02;9.35;;;;;;;;;;5073994;28;20078;-58
2022/04/26 04:30:02;;;;;;;10.18;9.48;;;;;;;;;;5074232;28;20472;-58
2022/04/26 04:32:30;;;;;;;9.95;9.15;;;;;;;;;;5075500;28;20072;-58
2022/04/26 04:34:56;;;;;;;10.63;9.88;;;;;;;;;;5069550;28;20750;-58
2022/04/26 04:37:22;;;;;;;11.55;10.82;;;;;;;;;;5073850;28;20036;-58
2022/04/26 04:39:48;;;;;;;11.93;11.13;;;;;;;;;;5072503;28;20401;-58
2022/04/26 04:42:14;;;;;;;12.32;11.43;;;;;;;;;;5074883;28;20047;-59
2022/04/26 04:44:39;;;;;;;11.23;10.52;;;;;;;;;;5075296;28;20036;-59
2022/04/26 04:47:05;;;;;;;13.30;12.43;;;;;;;;;;5076719;28;20078;-60
2022/04/26 04:49:30;;;;;;;12.02;11.23;;;;;;;;;;5076254;28;20055;-60
2022/04/26 04:51:56;;;;;;;13.18;12.30;;;;;;;;;;5078175;28;20058;-60
2022/04/26 04:54:21;;;;;;;11.43;10.63;;;;;;;;;;5079616;28;20114;-60
2022/04/26 04:56:46;;;;;;;9.48;8.80;;;;;;;;;;5079355;28;20031;-60
2022/04/26 04:59:12;;;;;;;12.18;11.27;;;;;;;;;;5080032;28;20040;-60
2022/04/26 05:01:37;;;;;;;10.60;9.90;;;;;;;;;;5074041;28;20201;-60
2022/04/26 05:04:02;;;;;;;14.05;13.15;;;;;;;;;;5077466;28;20468;-60
2022/04/26 05:06:28;;;;;;;12.50;11.68;;;;;;;;;;5078550;28;20453;-60
2022/04/26 05:08:53;;;;;;;11.32;10.57;;;;;;;;;;5074917;28;20156;-60
2022/04/26 05:11:19;;;;;;;12.98;12.18;;;;;;;;;;5078136;28;20819;-60
2022/04/26 05:13:44;;;;;;;15.02;13.80;;;;;;;;;;5078661;28;20110;-60
2022/04/26 05:16:09;;;;;;;9.63;9.02;;;;;;;;;;5077429;28;20073;-60
2022/04/26 05:18:35;;;;;;;11.73;10.93;;;;;;;;;;5076907;28;20420;-60
2022/04/26 05:21:00;;;;;;;12.85;11.75;;;;;;;;;;5078080;28;20035;-60
2022/04/26 05:26:10;;;;;;;12.40;11.60;;;;;;;;;;5072028;28;20048;-60
2022/04/26 05:28:35;;;;;;;12.48;11.63;;;;;;;;;;5076903;28;20029;-61
2022/04/26 05:31:01;;;;;;;12.70;11.90;;;;;;;;;;5073957;28;20020;-60
2022/04/26 05:33:27;;;;;;;12.82;12.00;;;;;;;;;;5074054;28;20561;-60
2022/04/26 05:35:53;;;;;;;13.27;12.38;;;;;;;;;;5079264;28;20051;-60
2022/04/26 05:38:18;;;;;;;11.57;10.88;;;;;;;;;;5082727;28;20056;-60
2022/04/26 05:40:44;;;;;;;12.52;11.73;;;;;;;;;;5076402;28;20040;-60
2022/04/26 05:43:10;;;;;;;12.75;11.95;;;;;;;;;;5075259;28;20059;-60
2022/04/26 05:45:35;;;;;;;14.27;13.38;;;;;;;;;;5075716;28;20040;-60
2022/04/26 05:48:00;;;;;;;13.52;12.73;;;;;;;;;;5074672;28;20040;-61
2022/04/26 05:50:26;;;;;;;13.73;12.82;;;;;;;;;;5076502;28;20058;-61
2022/04/26 05:52:51;;;;;;;13.55;12.75;;;;;;;;;;5077066;28;20059;-62
2022/04/26 05:55:17;;;;;;;13.48;12.65;;;;;;;;;;5071725;28;20028;-61
2022/04/26 05:57:42;;;;;;;13.68;12.88;;;;;;;;;;5067591;28;20028;-61
2022/04/26 06:00:10;;;;;;;14.55;13.45;;;;;;;;;;5078863;28;20088;-61
2022/04/26 06:02:35;;;;;;;13.80;12.93;;;;;;;;;;5075950;28;20036;-61
2022/04/26 06:05:02;;;;;;;14.52;13.63;;;;;;;;;;5079785;28;20024;-61
2022/04/26 06:07:27;;;;;;;13.20;12.40;;;;;;;;;;5078550;28;20071;-60
2022/04/26 06:09:54;;;;;;;13.80;12.70;;;;;;;;;;5075180;28;20445;-61
2022/04/26 06:12:23;;;;;;;13.27;12.45;;;;;;;;;;5074271;28;20134;-61
2022/04/26 06:14:49;;;;;;;13.65;12.77;;;;;;;;;;5076809;28;20020;-62
2022/04/26 06:17:14;;;;;;;14.95;13.95;;;;;;;;;;5074013;28;20065;-62
2022/04/26 06:19:39;;;;;;;13.93;12.88;;;;;;;;;;5078080;28;20138;-62
2022/04/26 06:22:05;;;;;;;12.95;11.93;;;;;;;;;;5076604;28;20020;-62
2022/04/26 06:24:30;;;;;;;13.07;12.18;;;;;;;;;;5077959;28;20469;-61
2022/04/26 06:26:55;;;;;;;12.77;11.98;;;;;;;;;;5074731;28;20119;-62
2022/04/26 06:29:21;;;;;;;12.30;11.48;;;;;;;;;;5073577;28;20044;-62
2022/04/26 06:31:46;;;;;;;11.80;11.10;;;;;;;;;;5077380;28;20828;-62
2022/04/26 06:34:12;;;;;;;13.38;12.55;;;;;;;;;;5076149;28;20057;-62
2022/04/26 06:36:38;;;;;;;13.00;12.20;;;;;;;;;;5075926;28;20046;-61
2022/04/26 06:39:04;;;;;;;13.48;12.63;;;;;;;;;;5074016;28;20032;-61
2022/04/26 06:41:29;;;;;;;13.02;12.23;;;;;;;;;;5076885;28;20351;-62
2022/04/26 06:43:55;;;;;;;12.27;11.48;;;;;;;;;;5072457;28;20079;-61
2022/04/26 06:46:20;;;;;;;13.00;12.05;;;;;;;;;;5076535;28;20042;-61
2022/04/26 06:48:49;;;;;;;12.77;11.98;;;;;;;;;;5073618;28;20024;-61
2022/04/26 06:51:15;;;;;;;14.18;13.23;;;;;;;;;;5077374;28;20031;-61
2022/04/26 06:53:40;;;;;;;11.98;11.27;;;;;;;;;;5076557;28;20054;-61
2022/04/26 06:56:09;;;;;;;12.63;11.82;;;;;;;;;;5065407;28;20036;-61
2022/04/26 06:58:35;;;;;;;15.50;14.50;;;;;;;;;;5077208;28;20032;-61
2022/04/26 07:01:00;;;;;;;13.68;12.70;;;;;;;;;;5076379;28;20043;-61
2022/04/26 07:03:26;;;;;;;13.05;12.25;;;;;;;;;;5071432;28;20097;-61
2022/04/26 07:05:52;;;;;;;12.15;11.35;;;;;;;;;;5075092;28;20132;-61
2022/04/26 07:08:17;;;;;;;13.70;12.90;;;;;;;;;;5074203;28;20048;-61
2022/04/26 07:10:43;;;;;;;13.93;13.10;;;;;;;;;;5075766;28;21405;-61
2022/04/26 07:13:08;;;;;;;14.35;13.45;;;;;;;;;;5071285;28;20036;-61
2022/04/26 07:15:33;;;;;;;13.93;12.98;;;;;;;;;;5064250;28;20063;-61
2022/04/26 07:17:59;;;;;;;13.27;12.48;;;;;;;;;;5069747;28;20047;-61
2022/04/26 07:20:24;;;;;;;14.45;13.63;;;;;;;;;;5070191;28;20108;-61
2022/04/26 07:22:50;;;;;;;14.93;14.02;;;;;;;;;;5073536;28;20085;-61
2022/04/26 07:25:15;;;;;;;12.63;11.82;;;;;;;;;;5071062;28;20040;-61
2022/04/26 07:27:41;;;;;;;14.05;12.95;;;;;;;;;;5081198;28;20040;-61
2022/04/26 07:30:06;;;;;;;15.52;14.63;;;;;;;;;;5071416;28;20044;-60
2022/04/26 07:35:16;;;;;;;13.40;12.40;;;;;;;;;;5071313;28;20033;-61
2022/04/26 07:37:41;;;;;;;11.65;10.95;;;;;;;;;;5074224;28;20120;-61
2022/04/26 07:40:08;;;;;;;13.38;12.57;;;;;;;;;;5075016;28;20074;-61
2022/04/26 07:42:34;;;;;;;13.57;12.77;;;;;;;;;;5072368;28;20062;-61
2022/04/26 07:44:59;;;;;;;14.02;13.10;;;;;;;;;;5070477;28;20545;-60
2022/04/26 07:47:26;;;;;;;13.93;12.93;;;;;;;;;;5072563;28;20166;-61
2022/04/26 07:49:53;;;;;;;13.70;12.80;;;;;;;;;;5071435;28;20029;-61
2022/04/26 07:52:20;;;;;;;11.85;11.13;;;;;;;;;;5075177;28;20082;-61
2022/04/26 07:54:46;;;;;;;12.27;11.48;;;;;;;;;;5076294;28;20084;-61
2022/04/26 07:57:12;;;;;;;13.48;12.65;;;;;;;;;;5073810;28;20439;-61
2022/04/26 07:59:38;;;;;;;13.40;12.52;;;;;;;;;;5072503;28;20044;-61
2022/04/26 08:02:13;;;;;;;13.48;12.57;;;;;;;;;;5073808;28;20028;-61
2022/04/26 08:04:38;;;;;;;13.57;12.77;;;;;;;;;;5075143;28;20036;-61
2022/04/26 08:07:05;;;;;;;12.65;11.85;;;;;;;;;;5079568;28;20043;-61
2022/04/26 08:09:35;;;;;;;12.13;11.32;;;;;;;;;;5068361;28;20032;-61
2022/04/26 08:12:01;;;;;;;12.33;11.63;;;;;;;;;;5071685;28;20036;-61
2022/04/26 08:14:26;;;;;;;15.77;14.88;;;;;;;;;;5069639;28;20353;-61
2022/04/26 08:16:52;;;;;;;12.02;11.25;;;;;;;;;;5067312;28;20971;-61
2022/04/26 08:19:17;;;;;;;16.23;15.30;;;;;;;;;;5071512;28;20028;-62
2022/04/26 08:21:42;;;;;;;13.43;12.63;;;;;;;;;;5073632;28;20032;-61
2022/04/26 08:29:36;;;;;;;18.00;17.00;;;;;;;;;;5072069;28;20131;-61
2022/04/26 08:32:01;;;;;;;17.48;16.50;;;;;;;;;;5072143;28;20397;-60
2022/04/26 08:34:28;;;;;;;16.70;15.80;;;;;;;;;;5072308;28;21043;-61
2022/04/26 08:36:53;;;;;;;16.85;15.90;;;;;;;;;;5072830;28;20032;-62
2022/04/26 08:39:20;;;;;;;17.27;16.27;;;;;;;;;;5072839;28;20033;-61
2022/04/26 08:41:46;;;;;;;15.60;14.70;;;;;;;;;;5072872;28;20034;-62
2022/04/26 08:44:12;;;;;;;17.25;16.27;;;;;;;;;;5070847;28;20037;-61
2022/04/26 08:52:17;;;;;;;17.70;16.70;;;;;;;;;;5074662;28;20972;-60
2022/04/26 08:54:43;;;;;;;16.55;15.65;;;;;;;;;;5073882;28;20036;-62
2022/04/26 08:57:09;;;;;;;13.57;12.77;;;;;;;;;;5071749;28;20528;-60
2022/04/26 08:59:34;;;;;;;14.43;13.52;;;;;;;;;;5070436;28;20139;-61
2022/04/26 09:02:19;;;;;;;14.18;13.35;;;;;;;;;;5077991;28;20119;-61
2022/04/26 09:04:46;;;;;;;14.65;13.82;;;;;;;;;;5074658;28;20055;-60
2022/04/26 09:07:26;;;;;;;14.60;13.70;;;;;;;;;;5075121;28;20063;-61
2022/04/26 09:10:22;;;;;;;16.02;15.05;;;;;;;;;;5073248;28;20025;-61
2022/04/26 09:13:09;;;;;;;14.13;13.32;;;;;;;;;;5076592;28;20071;-61
2022/04/26 09:15:56;;;;;;;14.88;13.88;;;;;;;;;;5061514;28;20028;-60
2022/04/26 09:18:26;;;;;;;15.63;14.73;;;;;;;;;;5078417;28;20044;-60
2022/04/26 09:21:07;;;;;;;17.00;16.02;;;;;;;;;;5075960;28;20031;-60
2022/04/26 09:23:33;;;;;;;17.40;16.40;;;;;;;;;;5074018;28;20076;-60
2022/04/26 09:25:58;;;;;;;15.07;14.23;;;;;;;;;;5077555;28;20037;-61
2022/04/26 09:28:26;;;;;;;14.55;13.75;;;;;;;;;;5075817;28;20032;-59
2022/04/26 09:30:52;;;;;;;15.55;14.65;;;;;;;;;;5075882;28;20048;-60
2022/04/26 09:33:37;;;;;;;7.53;7.03;;;;;;;;;;5078018;28;20036;-59
2022/04/26 09:36:09;;;;;;;10.57;9.93;;;;;;;;;;5072607;28;20028;-59
2022/04/26 09:38:36;;;;;;;7.30;6.80;;;;;;;;;;5074250;28;20119;-60
2022/04/26 09:41:04;;;;;;;8.35;7.82;;;;;;;;;;5075059;28;20050;-60
2022/04/26 09:43:30;;;;;;;8.75;8.18;;;;;;;;;;5074532;28;20029;-60
2022/04/26 09:45:57;;;;;;;7.10;6.60;;;;;;;;;;5070322;28;20117;-60
2022/04/26 09:48:27;;;;;;;9.57;8.98;;;;;;;;;;5073072;28;20039;-60
2022/04/26 09:50:53;;;;;;;12.93;12.13;;;;;;;;;;5071753;28;20038;-60
2022/04/26 09:53:18;;;;;;;14.90;14.10;;;;;;;;;;5074229;28;20040;-50
2022/04/26 09:55:45;;;;;;;13.50;12.70;;;;;;;;;;5075507;28;20043;-51
2022/04/26 09:58:12;;;;;;;14.55;13.75;;;;;;;;;;5092719;28;20035;-59
2022/04/26 10:00:39;;;;;;;13.82;13.02;;;;;;;;;;5076444;28;20043;-51
2022/04/26 10:03:09;;;;;;;14.27;13.48;;;;;;;;;;5077200;28;20024;-49
2022/04/26 10:05:38;;;;;;;10.60;9.98;;;;;;;;;;5073390;28;20115;-50
2022/04/26 10:08:05;;;;;;;9.02;8.45;;;;;;;;;;5076989;28;20035;-51
2022/04/26 10:10:30;;;;;;;9.20;8.60;;;;;;;;;;5078305;28;20035;-53
2022/04/26 10:15:41;;;;;;;7.65;7.15;;;;;;;;;;5071945;28;20450;-51
2022/04/26 10:18:32;;;;;;;8.68;8.07;;;;;;;;;;5068506;28;20995;-59
2022/04/26 10:20:59;;;;;;;7.38;6.88;;;;;;;;;;5076029;28;20671;-60
2022/04/26 10:23:24;;;;;;;11.02;10.32;;;;;;;;;;5067853;28;20082;-51
2022/04/26 10:26:11;;;;;;;7.72;7.22;;;;;;;;;;5075497;28;20123;-51
2022/04/26 10:28:57;;;;;;;14.13;13.32;;;;;;;;;;5073293;28;20186;-48
2022/04/26 10:31:40;;;;;;;9.68;9.07;;;;;;;;;;5077558;28;20130;-49
2022/04/26 10:34:16;;;;;;;7.57;7.07;;;;;;;;;;5074980;28;20056;-49
2022/04/26 10:36:45;;;;;;;5.82;5.43;;;;;;;;;;5074416;28;20042;-50
2022/04/26 10:39:13;;;;;;;7.05;6.55;;;;;;;;;;5072738;28;20055;-48
2022/04/26 10:41:40;;;;;;;8.75;8.20;;;;;;;;;;5078973;28;20032;-48
2022/04/26 10:44:21;;;;;;;6.97;6.47;;;;;;;;;;5077371;28;20036;-51
2022/04/26 10:46:51;;;;;;;6.32;5.93;;;;;;;;;;5076597;28;20515;-48
2022/04/26 10:49:25;;;;;;;10.68;10.00;;;;;;;;;;5071795;28;20143;-60
2022/04/26 10:51:51;;;;;;;10.70;10.10;;;;;;;;;;5074792;28;20044;-60
2022/04/26 10:54:51;;;;;;;12.35;11.55;;;;;;;;;;5073425;28;20127;-60
2022/04/26 10:57:23;;;;;;;12.70;11.98;;;;;;;;;;5075489;28;20040;-60
2022/04/26 10:59:51;;;;;;;14.88;14.00;;;;;;;;;;5070247;28;20040;-50
2022/04/26 11:02:21;;;;;;;11.77;11.07;;;;;;;;;;5073323;28;20141;-60
2022/04/26 11:04:56;;;;;;;12.00;11.30;;;;;;;;;;5072464;28;20020;-60
2022/04/26 11:07:25;;;;;;;7.75;7.25;;;;;;;;;;5071610;28;20119;-51
2022/04/26 11:09:53;;;;;;;13.40;12.50;;;;;;;;;;5077552;28;20024;-54
2022/04/26 11:12:22;;;;;;;8.15;7.65;;;;;;;;;;5072142;28;20029;-60
2022/04/26 11:14:49;;;;;;;8.07;7.57;;;;;;;;;;5070818;28;20117;-61
2022/04/26 11:17:19;;;;;;;6.95;6.45;;;;;;;;;;5072707;28;20024;-49
2022/04/26 11:19:49;;;;;;;7.35;6.85;;;;;;;;;;5073874;28;20043;-52
2022/04/26 11:22:15;;;;;;;10.35;9.73;;;;;;;;;;5075180;28;20028;-54
2022/04/26 11:30:32;;;;;;;8.88;8.27;;;;;;;;;;5072346;28;20074;-53
2022/04/26 11:33:02;;;;;;;8.35;7.85;;;;;;;;;;5074645;28;20031;-61
2022/04/26 11:35:28;;;;;;;8.77;8.18;;;;;;;;;;5074505;28;20031;-62
2022/04/26 11:37:56;;;;;;;8.07;7.55;;;;;;;;;;5070827;28;20032;-53
2022/04/26 11:40:27;;;;;;;8.38;7.88;;;;;;;;;;5073295;28;20683;-53
2022/04/26 11:42:56;;;;;;;8.57;8.00;;;;;;;;;;5073848;28;20101;-61
2022/04/26 11:45:21;;;;;;;9.27;8.68;;;;;;;;;;5070769;28;20120;-62
2022/04/26 11:47:48;;;;;;;7.97;7.45;;;;;;;;;;5073305;28;20142;-50
2022/04/26 11:50:18;;;;;;;7.93;7.43;;;;;;;;;;5070637;28;20444;-62
2022/04/26 11:52:45;;;;;;;7.85;7.35;;;;;;;;;;5074146;28;20040;-63
2022/04/26 11:55:31;;;;;;;6.45;6.05;;;;;;;;;;5074757;28;20509;-56
2022/04/26 11:58:08;;;;;;;8.18;7.57;;;;;;;;;;5070823;28;20413;-56
2022/04/26 12:00:35;;;;;;;8.23;7.72;;;;;;;;;;5071932;28;20028;-55
2022/04/26 12:03:02;;;;;;;8.15;7.65;;;;;;;;;;5072432;28;20032;-56
2022/04/26 12:05:33;;;;;;;9.25;8.65;;;;;;;;;;5072646;28;20032;-57
2022/04/26 12:07:58;;;;;;;9.65;9.05;;;;;;;;;;5072667;28;20024;-54
2022/04/26 12:10:26;;;;;;;11.20;10.50;;;;;;;;;;5074606;28;20481;-56
2022/04/26 12:12:56;;;;;;;11.18;10.48;;;;;;;;;;5074345;28;20020;-61
2022/04/26 12:15:26;;;;;;;10.07;9.48;;;;;;;;;;5070462;28;20020;-61
2022/04/26 12:18:21;;;;;;;9.43;8.82;;;;;;;;;;5075091;28;20047;-55
2022/04/26 12:21:02;;;;;;;9.60;9.00;;;;;;;;;;5072318;28;20534;-57
2022/04/26 12:23:29;;;;;;;8.07;7.57;;;;;;;;;;5072763;28;20032;-56
2022/04/26 12:26:02;;;;;;;7.43;6.93;;;;;;;;;;5069113;28;20169;-62
2022/04/26 12:28:28;;;;;;;5.25;4.85;;;;;;;;;;5069451;28;20182;-62
2022/04/26 12:30:54;;;;;;;9.48;8.88;;;;;;;;;;5075643;28;20118;-62
2022/04/26 12:33:35;;;;;;;7.78;7.28;;;;;;;;;;5074737;28;20082;-62
2022/04/26 12:36:04;;;;;;;7.15;6.65;;;;;;;;;;5072819;28;20032;-62
2022/04/26 12:38:30;;;;;;;8.63;8.10;;;;;;;;;;5076216;28;20138;-61
2022/04/26 12:41:06;;;;;;;7.82;7.32;;;;;;;;;;5071840;28;20060;-61
2022/04/26 12:43:32;;;;;;;8.32;7.82;;;;;;;;;;5072473;28;20465;-61
2022/04/26 12:46:03;;;;;;;8.77;8.07;;;;;;;;;;5073551;28;20062;-51
2022/04/26 12:51:20;;;;;;;7.35;6.85;;;;;;;;;;5071799;28;20043;-50
2022/04/26 12:53:50;;;;;;;7.88;7.38;;;;;;;;;;5072212;28;20040;-54
2022/04/26 12:56:16;;;;;;;8.80;8.23;;;;;;;;;;5073168;28;20500;-52
2022/04/26 12:58:44;;;;;;;9.38;8.77;;;;;;;;;;5078290;28;20097;-54
2022/04/26 13:01:10;;;;;;;10.07;9.38;;;;;;;;;;5072456;28;20420;-60
2022/04/26 13:03:37;;;;;;;10.10;9.50;;;;;;;;;;5075309;28;20020;-53
2022/04/26 13:06:12;;;;;;;9.18;8.57;;;;;;;;;;5076028;28;20691;-60
2022/04/26 13:08:40;;;;;;;7.40;6.90;;;;;;;;;;5078786;28;20040;-60
2022/04/26 13:11:06;;;;;;;10.05;8.88;;;;;;;;;;5072876;28;20032;-60
2022/04/26 13:13:36;;;;;;;7.20;6.70;;;;;;;;;;5075374;28;20067;-51
2022/04/26 13:16:02;;;;;;;6.23;5.83;;;;;;;;;;5077390;28;20027;-52
2022/04/26 13:18:28;;;;;;;7.07;6.53;;;;;;;;;;5077803;28;20031;-52
2022/04/26 13:20:55;;;;;;;7.18;6.68;;;;;;;;;;5074235;28;20123;-52
2022/04/26 13:23:21;;;;;;;6.82;6.32;;;;;;;;;;5073419;28;20526;-60
2022/04/26 13:25:47;;;;;;;9.35;8.75;;;;;;;;;;5077705;28;20024;-60
2022/04/26 13:28:13;;;;;;;6.40;5.97;;;;;;;;;;5077236;28;20036;-53
2022/04/26 13:30:39;;;;;;;7.28;6.78;;;;;;;;;;5078302;28;20070;-60
2022/04/26 13:33:04;;;;;;;8.93;8.32;;;;;;;;;;5074177;28;20592;-59
2022/04/26 13:35:30;;;;;;;9.02;8.43;;;;;;;;;;5075195;28;20032;-60
2022/04/26 13:37:58;;;;;;;10.45;9.65;;;;;;;;;;5079928;28;20044;-59
2022/04/26 13:40:24;;;;;;;10.70;10.07;;;;;;;;;;5073938;28;20111;-60
2022/04/26 13:42:51;;;;;;;10.90;10.23;;;;;;;;;;5072533;28;20262;-60
2022/04/26 13:45:17;;;;;;;12.00;11.20;;;;;;;;;;5072987;28;20544;-51
2022/04/26 13:47:43;;;;;;;9.05;8.45;;;;;;;;;;5073757;28;20048;-53
2022/04/26 13:50:09;;;;;;;7.72;7.22;;;;;;;;;;5071628;28;20029;-52
2022/04/26 13:52:35;;;;;;;12.10;11.38;;;;;;;;;;5075485;28;20724;-53
2022/04/26 13:55:01;;;;;;;9.43;8.82;;;;;;;;;;5076067;28;20021;-59
2022/04/26 13:57:26;;;;;;;6.05;5.60;;;;;;;;;;5073579;28;20024;-59
2022/04/26 13:59:52;;;;;;;7.55;7.05;;;;;;;;;;5075863;28;20537;-59
2022/04/26 14:02:19;;;;;;;10.70;10.05;;;;;;;;;;5075127;28;20047;-49
2022/04/26 14:04:47;;;;;;;11.05;10.35;;;;;;;;;;5075263;28;20033;-59
2022/04/26 14:07:12;;;;;;;7.30;6.80;;;;;;;;;;5076648;28;20076;-59
2022/04/26 14:09:37;;;;;;;11.27;10.57;;;;;;;;;;5074795;28;20126;-59
2022/04/26 14:12:03;;;;;;;7.53;7.03;;;;;;;;;;5073331;28;20083;-50
2022/04/26 14:22:42;;;;;;;6.22;5.82;;;;;;;;;;5078139;28;20039;-51
2022/04/26 14:25:09;;;;;;;8.65;8.05;;;;;;;;;;5074783;28;20028;-50
2022/04/26 14:27:36;;;;;;;7.70;7.20;;;;;;;;;;5074779;28;20106;-59
2022/04/26 14:30:04;;;;;;;6.97;6.47;;;;;;;;;;5078451;28;20089;-59
2022/04/26 14:32:29;;;;;;;9.02;8.13;;;;;;;;;;5067933;28;20048;-59
2022/04/26 14:34:55;;;;;;;9.38;8.68;;;;;;;;;;5073826;28;20450;-59
2022/04/26 14:37:22;;;;;;;9.65;8.85;;;;;;;;;;5075611;28;20568;-59
2022/04/26 14:39:48;;;;;;;9.50;8.90;;;;;;;;;;5072900;28;20107;-51
2022/04/26 14:42:13;;;;;;;9.50;8.60;;;;;;;;;;5073416;28;20118;-50
2022/04/26 14:44:39;;;;;;;9.68;9.07;;;;;;;;;;5074235;28;20028;-53
2022/04/26 14:47:06;;;;;;;8.43;7.82;;;;;;;;;;5074585;28;20036;-51
2022/04/26 14:49:32;;;;;;;8.45;7.85;;;;;;;;;;5073090;28;20038;-59
2022/04/26 14:51:58;;;;;;;9.25;8.63;;;;;;;;;;5072289;28;20044;-49
2022/04/26 14:54:23;;;;;;;8.35;7.85;;;;;;;;;;5074140;28;20069;-59
2022/04/26 14:56:50;;;;;;;9.13;8.48;;;;;;;;;;5069377;28;20032;-59
2022/04/26 14:59:19;;;;;;;8.88;8.27;;;;;;;;;;5073487;28;20119;-49
2022/04/26 15:01:46;;;;;;;9.23;8.63;;;;;;;;;;5072355;28;20539;-59
2022/04/26 15:04:16;;;;;;;9.55;8.93;;;;;;;;;;5073475;28;20485;-48
2022/04/26 15:06:42;;;;;;;10.93;10.18;;;;;;;;;;5071027;28;20029;-58
2022/04/26 15:17:20;;;;;;;9.48;8.88;;;;;;;;;;5074359;28;20126;-47
2022/04/26 15:19:50;;;;;;;8.73;8.13;;;;;;;;;;5075796;28;20118;-48
2022/04/26 15:22:17;;;;;;;8.38;7.78;;;;;;;;;;5074876;28;20461;-48
2022/04/26 15:24:43;;;;;;;7.90;7.32;;;;;;;;;;5074735;28;20055;-47
2022/04/26 15:27:08;;;;;;;9.00;8.40;;;;;;;;;;5075515;28;20390;-58
2022/04/26 15:29:33;;;;;;;10.60;10.00;;;;;;;;;;5074252;28;20025;-47
2022/04/26 15:31:59;;;;;;;9.57;8.90;;;;;;;;;;5070282;28;20032;-49
2022/04/26 15:34:24;;;;;;;7.22;6.72;;;;;;;;;;5074139;28;20503;-59
2022/04/26 15:36:50;;;;;;;11.27;10.48;;;;;;;;;;5075659;28;20100;-59
2022/04/26 15:39:15;;;;;;;9.02;8.43;;;;;;;;;;5076569;28;20031;-59
2022/04/26 15:41:41;;;;;;;11.35;10.57;;;;;;;;;;5064033;28;20028;-59
2022/04/26 15:44:06;;;;;;;8.80;8.02;;;;;;;;;;5074850;28;20032;-59
2022/04/26 15:46:31;;;;;;;12.43;11.63;;;;;;;;;;5075020;28;20456;-46
2022/04/26 15:48:57;;;;;;;6.85;6.35;;;;;;;;;;5072820;28;20125;-59
2022/04/26 15:51:25;;;;;;;7.47;6.78;;;;;;;;;;5073262;28;20493;-58
2022/04/26 15:53:50;;;;;;;8.32;7.70;;;;;;;;;;5074236;28;20028;-59
2022/04/26 15:56:16;;;;;;;9.35;8.70;;;;;;;;;;5074532;28;20032;-49
2022/04/26 15:58:41;;;;;;;11.77;11.07;;;;;;;;;;5076409;28;20040;-59
2022/04/26 16:01:07;;;;;;;11.50;10.65;;;;;;;;;;5071505;28;20041;-58
2022/04/26 16:03:33;;;;;;;11.13;10.43;;;;;;;;;;5070231;28;20036;-58
2022/04/26 16:05:58;;;;;;;11.43;10.52;;;;;;;;;;5071216;28;20033;-58
2022/04/26 16:08:23;;;;;;;9.55;8.95;;;;;;;;;;5074443;28;20408;-58
2022/04/26 16:21:45;;;;;;;11.00;10.20;;;;;;;;;;5072146;28;20457;-50
2022/04/26 16:24:10;;;;;;;7.93;7.43;;;;;;;;;;5069959;28;20113;-50
2022/04/26 16:26:36;;;;;;;9.45;8.65;;;;;;;;;;5070179;28;20025;-50
2022/04/26 16:29:04;;;;;;;10.35;9.63;;;;;;;;;;5069081;28;20621;-49
2022/04/26 16:31:32;;;;;;;8.70;8.10;;;;;;;;;;5069574;28;20071;-59
2022/04/26 16:33:59;;;;;;;10.15;9.45;;;;;;;;;;5078532;28;20036;-52
2022/04/26 16:36:25;;;;;;;7.60;7.10;;;;;;;;;;5068066;28;20449;-48
2022/04/26 16:38:52;;;;;;;9.07;8.27;;;;;;;;;;5068443;28;20097;-52
2022/04/26 16:41:19;;;;;;;8.18;7.57;;;;;;;;;;5073829;28;20033;-49
2022/04/26 16:43:46;;;;;;;9.55;8.95;;;;;;;;;;5073772;28;20385;-49
2022/04/26 16:46:12;;;;;;;7.97;7.47;;;;;;;;;;5075647;28;20424;-47
2022/04/26 16:48:38;;;;;;;8.27;7.68;;;;;;;;;;5073959;28;20143;-49
2022/04/26 16:51:03;;;;;;;8.95;8.35;;;;;;;;;;5074689;28;20028;-52
2022/04/26 16:53:29;;;;;;;8.80;8.20;;;;;;;;;;5054682;28;20468;-52
2022/04/26 16:55:55;;;;;;;7.75;7.15;;;;;;;;;;5071573;28;20092;-60
2022/04/26 16:58:21;;;;;;;8.68;8.07;;;;;;;;;;5071787;28;20040;-60
2022/04/26 17:00:48;;;;;;;6.97;6.47;;;;;;;;;;5073179;28;20033;-60
2022/04/26 17:03:18;;;;;;;8.35;7.75;;;;;;;;;;5074145;28;20036;-50
2022/04/26 17:05:47;;;;;;;8.83;8.23;;;;;;;;;;5075574;28;20059;-59
2022/04/26 17:08:14;;;;;;;7.03;6.43;;;;;;;;;;5076662;28;20051;-59
2022/04/26 17:10:41;;;;;;;7.53;7.03;;;;;;;;;;5076401;28;20055;-50
2022/04/26 17:13:06;;;;;;;8.50;7.90;;;;;;;;;;5075801;28;20107;-50
2022/04/26 17:15:31;;;;;;;9.65;8.95;;;;;;;;;;5076442;28;20136;-48
2022/04/26 17:17:57;;;;;;;8.63;8.02;;;;;;;;;;5074018;28;20031;-49
2022/04/26 17:20:23;;;;;;;9.05;8.45;;;;;;;;;;5072809;28;20195;-49
2022/04/26 17:22:48;;;;;;;8.25;7.65;;;;;;;;;;5072936;28;20033;-48
2022/04/26 17:25:13;;;;;;;9.25;8.65;;;;;;;;;;5075889;28;20036;-51
2022/04/26 17:27:40;;;;;;;7.60;7.10;;;;;;;;;;5074366;28;20036;-52
2022/04/26 17:30:06;;;;;;;8.70;8.10;;;;;;;;;;5074159;28;20428;-51
2022/04/26 17:32:32;;;;;;;6.85;6.35;;;;;;;;;;5075884;28;20027;-53
2022/04/26 17:34:57;;;;;;;7.43;6.93;;;;;;;;;;5074455;28;20547;-48
2022/04/26 17:37:23;;;;;;;6.80;6.30;;;;;;;;;;5074433;28;20483;-50
2022/04/26 17:39:48;;;;;;;7.50;6.97;;;;;;;;;;5075586;28;20031;-51
2022/04/26 17:42:15;;;;;;;9.05;8.45;;;;;;;;;;5072432;28;20553;-52
2022/04/26 17:44:42;;;;;;;8.90;8.20;;;;;;;;;;5073461;28;20042;-50
2022/04/26 17:47:08;;;;;;;8.73;8.13;;;;;;;;;;5074451;28;20075;-52
2022/04/26 17:49:35;;;;;;;7.32;6.72;;;;;;;;;;5078027;28;20035;-50
2022/04/26 17:52:00;;;;;;;7.95;7.45;;;;;;;;;;5074749;28;20019;-53
2022/04/26 17:57:10;;;;;;;8.13;7.53;;;;;;;;;;5074872;28;20532;-59
2022/04/26 17:59:36;;;;;;;8.43;7.85;;;;;;;;;;5072460;28;20081;-58
2022/04/26 18:02:02;;;;;;;7.68;7.18;;;;;;;;;;5076734;28;20040;-52
2022/04/26 18:04:27;;;;;;;8.73;8.13;;;;;;;;;;5072429;28;20033;-49
2022/04/26 18:06:53;;;;;;;7.22;6.68;;;;;;;;;;5071059;28;20127;-50
2022/04/26 18:09:18;;;;;;;7.93;7.43;;;;;;;;;;5069760;28;20413;-50
2022/04/26 18:11:43;;;;;;;11.93;11.18;;;;;;;;;;5075959;28;20036;-49
2022/04/26 18:14:09;;;;;;;11.43;10.68;;;;;;;;;;5072589;28;20354;-51
2022/04/26 18:16:34;;;;;;;10.73;10.02;;;;;;;;;;5072335;28;20801;-55
2022/04/26 18:19:03;;;;;;;11.27;10.57;;;;;;;;;;5076480;28;20131;-54
2022/04/26 18:21:33;;;;;;;10.57;9.90;;;;;;;;;;5077247;28;20029;-54
2022/04/26 18:23:59;;;;;;;12.70;11.95;;;;;;;;;;5070288;28;20029;-54
2022/04/26 18:26:25;;;;;;;13.02;12.23;;;;;;;;;;5075040;28;20469;-53
2022/04/26 18:28:53;;;;;;;11.38;10.68;;;;;;;;;;5074769;28;20476;-49
2022/04/26 18:31:20;;;;;;;11.13;10.48;;;;;;;;;;5071698;28;20035;-54
2022/04/26 18:33:47;;;;;;;12.10;11.40;;;;;;;;;;5075973;28;20024;-49
2022/04/26 18:36:15;;;;;;;12.65;11.90;;;;;;;;;;5074071;28;20033;-50
2022/04/26 18:38:45;;;;;;;8.05;7.45;;;;;;;;;;5073286;28;20055;-60
2022/04/26 18:41:11;;;;;;;8.10;7.57;;;;;;;;;;5071527;28;20036;-59
2022/04/26 18:43:38;;;;;;;8.48;7.90;;;;;;;;;;5074656;28;20097;-59
2022/04/26 18:46:04;;;;;;;8.85;8.25;;;;;;;;;;5070169;28;20136;-59
2022/04/26 18:48:30;;;;;;;9.77;9.18;;;;;;;;;;5066658;28;20482;-59
2022/04/26 18:50:56;;;;;;;11.02;10.32;;;;;;;;;;5070843;28;20051;-59
2022/04/26 18:53:21;;;;;;;8.88;8.18;;;;;;;;;;5066021;28;20493;-59
2022/04/26 18:55:49;;;;;;;12.07;11.32;;;;;;;;;;5068947;28;20035;-59
2022/04/26 18:58:16;;;;;;;9.50;8.90;;;;;;;;;;5067157;28;20040;-59
2022/04/26 19:00:43;;;;;;;10.10;9.38;;;;;;;;;;5067385;28;20040;-59
2022/04/26 19:03:08;;;;;;;11.65;10.95;;;;;;;;;;5067828;28;20024;-59
2022/04/26 19:05:34;;;;;;;8.70;8.15;;;;;;;;;;5066440;28;20679;-59